createdAt,value
2022-10-04T00:00:59.371Z,14.19
2022-10-04T00:01:59.505Z,13.19
2022-10-04T00:02:59.725Z,14.10
2022-10-04T00:03:59.724Z,13.89
2022-10-04T00:04:59.836Z,14.10
2022-10-04T00:05:59.953Z,13.60
2022-10-04T00:07:00.089Z,13.00
2022-10-04T00:08:00.199Z,13.00
2022-10-04T00:09:00.326Z,13.60
2022-10-04T00:10:00.448Z,13.00
2022-10-04T00:11:00.565Z,14.69
2022-10-04T00:12:00.685Z,14.19
2022-10-04T00:13:00.924Z,14.60
2022-10-04T00:14:00.922Z,15.39
2022-10-04T00:15:01.042Z,15.80
2022-10-04T00:16:01.223Z,16.39
2022-10-04T00:17:01.275Z,15.89
2022-10-04T00:18:01.392Z,17.00
2022-10-04T00:19:01.507Z,15.80
2022-10-04T00:20:01.621Z,15.69
2022-10-04T00:21:01.740Z,17.10
2022-10-04T00:22:01.856Z,17.39
2022-10-04T00:23:01.969Z,17.10
2022-10-04T00:24:02.089Z,15.50
2022-10-04T00:25:02.211Z,14.19
2022-10-04T00:26:02.335Z,14.39
2022-10-04T00:27:02.456Z,14.00
2022-10-04T00:28:02.646Z,14.39
2022-10-04T00:29:02.725Z,14.10
2022-10-04T00:30:02.821Z,14.80
2022-10-04T00:31:03.027Z,15.30
2022-10-04T00:32:03.072Z,15.00
2022-10-04T00:33:03.195Z,15.30
2022-10-04T00:34:03.314Z,14.50
2022-10-04T00:35:03.438Z,14.10
2022-10-04T00:36:03.562Z,15.00
2022-10-04T00:37:03.685Z,15.60
2022-10-04T00:38:03.807Z,15.50
2022-10-04T00:39:03.931Z,15.10
2022-10-04T00:40:04.048Z,14.30
2022-10-04T00:41:04.164Z,15.60
2022-10-04T00:42:04.278Z,14.39
2022-10-04T00:43:04.399Z,14.50
2022-10-04T00:44:04.510Z,13.89
2022-10-04T00:45:04.681Z,13.39
2022-10-04T00:46:04.805Z,13.00
2022-10-04T00:47:04.858Z,13.00
2022-10-04T00:48:04.973Z,12.30
2022-10-04T00:49:05.084Z,12.80
2022-10-04T00:50:05.203Z,12.39
2022-10-04T00:51:05.319Z,13.10
2022-10-04T00:52:05.435Z,12.69
2022-10-04T00:53:05.547Z,12.00
2022-10-04T00:54:05.663Z,10.39
2022-10-04T00:55:05.779Z,9.80
2022-10-04T00:56:05.888Z,9.60
2022-10-04T00:57:06.002Z,9.89
2022-10-04T00:58:06.110Z,10.50
2022-10-04T00:59:06.224Z,11.00
2022-10-04T01:00:06.333Z,11.10
2022-10-04T01:01:06.555Z,12.00
2022-10-04T01:02:06.665Z,11.69
2022-10-04T01:03:06.668Z,10.89
2022-10-04T01:04:06.780Z,10.60
2022-10-04T01:05:06.891Z,9.60
2022-10-04T01:06:07.008Z,10.10
2022-10-04T01:07:07.121Z,9.60
2022-10-04T01:08:07.236Z,9.19
2022-10-04T01:09:07.342Z,8.60
2022-10-04T01:10:07.449Z,10.19
2022-10-04T01:11:07.565Z,9.69
2022-10-04T01:12:07.680Z,9.19
2022-10-04T01:13:07.792Z,9.10
2022-10-04T01:14:07.897Z,9.39
2022-10-04T01:15:08.013Z,10.39
2022-10-04T01:16:08.193Z,10.89
2022-10-04T01:17:08.242Z,10.60
2022-10-04T01:18:09.490Z,10.30
2022-10-04T01:19:08.467Z,10.30
2022-10-04T01:20:08.579Z,9.69
2022-10-04T01:21:08.688Z,9.10
2022-10-04T01:22:08.801Z,9.60
2022-10-04T01:23:08.916Z,9.39
2022-10-04T01:24:09.032Z,9.00
2022-10-04T01:25:09.149Z,9.10
2022-10-04T01:26:09.266Z,9.10
2022-10-04T01:27:09.376Z,9.00
2022-10-04T01:28:09.570Z,9.19
2022-10-04T01:29:09.599Z,8.69
2022-10-04T01:30:09.713Z,8.80
2022-10-04T01:31:09.911Z,8.60
2022-10-04T01:32:09.973Z,9.19
2022-10-04T01:33:10.059Z,9.10
2022-10-04T01:34:10.167Z,9.80
2022-10-04T01:35:10.283Z,9.10
2022-10-04T01:36:10.393Z,10.19
2022-10-04T01:37:10.518Z,9.30
2022-10-04T01:38:10.623Z,9.10
2022-10-04T01:39:10.755Z,9.19
2022-10-04T01:40:10.862Z,9.89
2022-10-04T01:41:10.976Z,9.50
2022-10-04T01:42:11.098Z,8.89
2022-10-04T01:43:11.216Z,9.50
2022-10-04T01:44:11.335Z,8.60
2022-10-04T01:45:11.455Z,8.69
2022-10-04T01:46:11.668Z,9.10
2022-10-04T01:47:11.731Z,8.69
2022-10-04T01:48:11.817Z,8.39
2022-10-04T01:49:11.937Z,8.00
2022-10-04T01:50:15.654Z,7.90
2022-10-04T01:51:12.172Z,7.69
2022-10-04T01:52:12.292Z,8.50
2022-10-04T01:53:12.412Z,8.19
2022-10-04T01:54:12.526Z,8.10
2022-10-04T01:55:12.643Z,8.39
2022-10-04T01:56:12.760Z,9.19
2022-10-04T01:57:12.877Z,8.69
2022-10-04T01:58:12.999Z,9.50
2022-10-04T01:59:13.121Z,9.80
2022-10-04T02:00:13.242Z,9.50
2022-10-04T02:01:13.425Z,9.89
2022-10-04T02:02:13.496Z,9.60
2022-10-04T02:03:13.591Z,9.30
2022-10-04T02:04:16.283Z,12.19
2022-10-04T02:05:13.828Z,9.39
2022-10-04T02:06:13.943Z,9.80
2022-10-04T02:07:14.059Z,9.00
2022-10-04T02:08:14.178Z,9.39
2022-10-04T02:09:14.294Z,10.00
2022-10-04T02:10:14.411Z,9.89
2022-10-04T02:11:14.527Z,9.80
2022-10-04T02:12:14.643Z,10.80
2022-10-04T02:13:14.763Z,10.39
2022-10-04T02:14:14.878Z,9.89
2022-10-04T02:15:14.997Z,9.89
2022-10-04T02:16:15.176Z,10.30
2022-10-04T02:17:15.231Z,9.80
2022-10-04T02:18:15.372Z,9.69
2022-10-04T02:19:15.465Z,9.80
2022-10-04T02:20:15.587Z,9.69
2022-10-04T02:21:15.706Z,9.39
2022-10-04T02:22:15.824Z,9.69
2022-10-04T02:23:15.945Z,9.50
2022-10-04T02:24:16.063Z,9.50
2022-10-04T02:25:16.184Z,9.69
2022-10-04T02:26:16.300Z,9.39
2022-10-04T02:27:16.420Z,9.60
2022-10-04T02:28:16.618Z,9.39
2022-10-04T02:29:16.662Z,9.89
2022-10-04T02:30:16.784Z,10.00
2022-10-04T02:31:16.947Z,9.80
2022-10-04T02:32:17.017Z,10.30
2022-10-04T02:33:17.165Z,10.30
2022-10-04T02:34:17.261Z,10.19
2022-10-04T02:35:17.383Z,9.60
2022-10-04T02:36:17.509Z,10.39
2022-10-04T02:37:17.643Z,10.80
2022-10-04T02:38:17.749Z,10.39
2022-10-04T02:39:17.865Z,10.30
2022-10-04T02:40:17.986Z,10.39
2022-10-04T02:41:18.099Z,9.89
2022-10-04T02:42:18.218Z,9.80
2022-10-04T02:43:18.337Z,10.69
2022-10-04T02:44:18.456Z,9.80
2022-10-04T02:45:18.572Z,10.60
2022-10-04T02:46:18.731Z,10.69
2022-10-04T02:47:18.803Z,11.00
2022-10-04T02:48:18.922Z,10.30
2022-10-04T02:49:19.067Z,9.69
2022-10-04T02:50:19.168Z,9.69
2022-10-04T02:51:19.283Z,10.00
2022-10-04T02:52:19.399Z,8.39
2022-10-04T02:53:19.512Z,9.80
2022-10-04T02:54:19.632Z,9.39
2022-10-04T02:55:19.750Z,9.50
2022-10-04T02:56:19.866Z,10.00
2022-10-04T02:57:19.979Z,10.10
2022-10-04T02:58:20.101Z,9.69
2022-10-04T02:59:20.218Z,9.80
2022-10-04T03:00:20.341Z,10.00
2022-10-04T03:01:20.475Z,9.69
2022-10-04T03:02:28.719Z,10.39
2022-10-04T03:03:21.725Z,11.39
2022-10-04T03:04:20.833Z,10.60
2022-10-04T03:05:20.984Z,11.10
2022-10-04T03:06:21.079Z,10.60
2022-10-04T03:07:21.203Z,10.19
2022-10-04T03:08:21.328Z,10.39
2022-10-04T03:09:24.089Z,9.69
2022-10-04T03:10:21.570Z,10.50
2022-10-04T03:11:21.689Z,10.50
2022-10-04T03:12:21.813Z,10.10
2022-10-04T03:13:21.937Z,10.80
2022-10-04T03:14:22.055Z,10.69
2022-10-04T03:15:22.172Z,10.00
2022-10-04T03:16:22.404Z,10.30
2022-10-04T03:17:22.404Z,9.89
2022-10-04T03:18:22.524Z,9.69
2022-10-04T03:19:22.649Z,9.60
2022-10-04T03:20:22.799Z,10.39
2022-10-04T03:21:22.899Z,10.00
2022-10-04T03:22:23.020Z,9.10
2022-10-04T03:23:23.136Z,9.39
2022-10-04T03:24:23.257Z,9.30
2022-10-04T03:25:23.376Z,9.60
2022-10-04T03:26:23.497Z,9.39
2022-10-04T03:27:23.610Z,9.19
2022-10-04T03:28:23.822Z,9.60
2022-10-04T03:29:23.860Z,9.69
2022-10-04T03:30:23.975Z,10.50
2022-10-04T03:31:24.161Z,10.60
2022-10-04T03:32:24.222Z,10.19
2022-10-04T03:33:24.348Z,10.30
2022-10-04T03:34:24.472Z,9.80
2022-10-04T03:35:24.598Z,10.69
2022-10-04T03:36:24.755Z,10.60
2022-10-04T03:37:24.851Z,10.00
2022-10-04T03:38:24.980Z,11.00
2022-10-04T03:39:25.099Z,11.60
2022-10-04T03:40:25.221Z,12.50
2022-10-04T03:41:25.352Z,12.30
2022-10-04T03:42:25.462Z,12.39
2022-10-04T03:43:25.582Z,11.80
2022-10-04T03:44:25.709Z,12.80
2022-10-04T03:45:25.879Z,12.39
2022-10-04T03:46:25.944Z,12.39
2022-10-04T03:47:26.063Z,13.19
2022-10-04T03:48:26.187Z,13.10
2022-10-04T03:49:26.309Z,11.80
2022-10-04T03:50:26.429Z,13.00
2022-10-04T03:51:26.553Z,12.69
2022-10-04T03:52:26.703Z,13.19
2022-10-04T03:53:26.798Z,13.10
2022-10-04T03:54:26.916Z,12.69
2022-10-04T03:55:27.038Z,13.10
2022-10-04T03:56:27.156Z,12.69
2022-10-04T03:57:27.276Z,13.60
2022-10-04T03:58:27.400Z,13.50
2022-10-04T03:59:27.521Z,13.60
2022-10-04T04:00:27.640Z,13.10
2022-10-04T04:01:27.845Z,12.50
2022-10-04T04:02:27.979Z,13.39
2022-10-04T04:03:28.007Z,14.00
2022-10-04T04:04:28.123Z,13.10
2022-10-04T04:05:28.247Z,13.60
2022-10-04T04:06:28.366Z,13.10
2022-10-04T04:07:28.611Z,13.80
2022-10-04T04:08:28.619Z,12.89
2022-10-04T04:09:28.734Z,13.00
2022-10-04T04:10:28.855Z,13.10
2022-10-04T04:11:28.982Z,13.50
2022-10-04T04:12:29.109Z,13.69
2022-10-04T04:13:29.233Z,14.30
2022-10-04T04:14:29.352Z,14.30
2022-10-04T04:15:29.475Z,14.80
2022-10-04T04:16:29.639Z,14.19
2022-10-04T04:17:29.724Z,13.19
2022-10-04T04:18:29.843Z,14.00
2022-10-04T04:19:29.966Z,14.00
2022-10-04T04:20:30.088Z,14.50
2022-10-04T04:21:30.214Z,14.10
2022-10-04T04:22:30.362Z,14.10
2022-10-04T04:23:30.467Z,15.10
2022-10-04T04:24:30.588Z,14.60
2022-10-04T04:25:30.715Z,16.20
2022-10-04T04:26:30.843Z,16.10
2022-10-04T04:27:30.971Z,15.80
2022-10-04T04:28:31.229Z,15.60
2022-10-04T04:29:31.235Z,16.39
2022-10-04T04:30:31.366Z,16.10
2022-10-04T04:31:31.575Z,15.80
2022-10-04T04:32:31.626Z,16.29
2022-10-04T04:33:31.762Z,16.50
2022-10-04T04:34:31.896Z,15.69
2022-10-04T04:35:32.023Z,16.29
2022-10-04T04:36:32.175Z,15.60
2022-10-04T04:37:32.275Z,16.00
2022-10-04T04:38:32.427Z,15.60
2022-10-04T04:39:32.536Z,15.60
2022-10-04T04:40:32.655Z,15.19
2022-10-04T04:41:32.782Z,15.69
2022-10-04T04:42:32.907Z,15.50
2022-10-04T04:43:33.034Z,15.50
2022-10-04T04:44:33.164Z,15.80
2022-10-04T04:45:33.339Z,16.10
2022-10-04T04:46:33.502Z,15.60
2022-10-04T04:47:33.547Z,16.79
2022-10-04T04:48:33.674Z,16.29
2022-10-04T04:49:33.802Z,16.10
2022-10-04T04:50:33.935Z,17.00
2022-10-04T04:51:34.068Z,17.00
2022-10-04T04:52:34.206Z,16.39
2022-10-04T04:53:34.367Z,16.20
2022-10-04T04:54:34.472Z,16.00
2022-10-04T04:55:56.374Z,16.39
2022-10-04T04:56:34.743Z,16.39
2022-10-04T04:57:34.872Z,15.80
2022-10-04T04:58:35.004Z,17.20
2022-10-04T04:59:35.134Z,17.79
2022-10-04T05:00:35.265Z,18.10
2022-10-04T05:01:35.399Z,18.20
2022-10-04T05:02:35.637Z,19.10
2022-10-04T05:03:35.650Z,18.29
2022-10-04T05:04:35.773Z,19.10
2022-10-04T05:05:35.898Z,18.89
2022-10-04T05:06:36.026Z,17.89
2022-10-04T05:07:36.155Z,17.70
2022-10-04T05:08:41.271Z,17.89
2022-10-04T05:09:36.442Z,18.89
2022-10-04T05:10:36.550Z,18.89
2022-10-04T05:11:36.685Z,18.20
2022-10-04T05:12:36.812Z,18.50
2022-10-04T05:13:36.949Z,18.20
2022-10-04T05:14:37.089Z,17.29
2022-10-04T05:15:37.221Z,17.10
2022-10-04T05:16:37.440Z,17.70
2022-10-04T05:17:37.485Z,16.39
2022-10-04T05:18:37.614Z,17.39
2022-10-04T05:19:37.747Z,16.60
2022-10-04T05:20:37.882Z,16.50
2022-10-04T05:21:42.614Z,16.70
2022-10-04T05:22:38.145Z,17.60
2022-10-04T05:23:38.276Z,17.70
2022-10-04T05:24:38.431Z,18.29
2022-10-04T05:25:38.538Z,17.89
2022-10-04T05:26:38.786Z,17.70
2022-10-04T05:27:38.795Z,16.79
2022-10-04T05:28:39.011Z,16.89
2022-10-04T05:29:39.049Z,17.50
2022-10-04T05:30:39.181Z,16.89
2022-10-04T05:31:39.362Z,18.00
2022-10-04T05:32:39.453Z,17.70
2022-10-04T05:33:39.577Z,17.20
2022-10-04T05:34:39.710Z,17.89
2022-10-04T05:35:39.831Z,18.10
2022-10-04T05:36:39.963Z,18.50
2022-10-04T05:37:40.093Z,17.89
2022-10-04T05:38:40.228Z,18.39
2022-10-04T05:39:40.394Z,18.10
2022-10-04T05:40:40.490Z,17.20
2022-10-04T05:41:40.701Z,18.70
2022-10-04T05:42:40.761Z,18.10
2022-10-04T05:43:40.895Z,19.10
2022-10-04T05:44:41.029Z,17.79
2022-10-04T05:45:41.225Z,18.39
2022-10-04T05:46:44.101Z,20.29
2022-10-04T05:47:41.415Z,18.20
2022-10-04T05:48:41.568Z,19.60
2022-10-04T05:49:41.677Z,18.60
2022-10-04T05:50:41.810Z,17.70
2022-10-04T05:51:42.238Z,18.10
2022-10-04T05:52:42.068Z,18.20
2022-10-04T05:53:42.199Z,17.39
2022-10-04T05:54:42.353Z,17.29
2022-10-04T05:55:42.457Z,17.39
2022-10-04T05:56:42.579Z,17.70
2022-10-04T05:57:42.719Z,17.39
2022-10-04T05:58:42.828Z,18.10
2022-10-04T05:59:42.952Z,18.29
2022-10-04T06:00:43.075Z,16.70
2022-10-04T06:01:43.616Z,17.10
2022-10-04T06:02:43.391Z,17.50
2022-10-04T06:03:43.449Z,16.89
2022-10-04T06:04:43.572Z,17.29
2022-10-04T06:05:43.695Z,17.20
2022-10-04T06:06:43.813Z,16.70
2022-10-04T06:07:43.940Z,17.10
2022-10-04T06:08:44.062Z,16.70
2022-10-04T06:09:44.181Z,17.20
2022-10-04T06:10:44.330Z,16.29
2022-10-04T06:11:44.713Z,16.10
2022-10-04T06:12:44.788Z,16.00
2022-10-04T06:13:44.688Z,15.50
2022-10-04T06:14:44.818Z,15.60
2022-10-04T06:15:44.949Z,15.30
2022-10-04T06:16:45.113Z,14.50
2022-10-04T06:17:45.199Z,13.10
2022-10-04T06:18:45.325Z,13.50
2022-10-04T06:19:45.455Z,13.60
2022-10-04T06:20:45.583Z,12.60
2022-10-04T06:21:46.001Z,12.69
2022-10-04T06:22:45.828Z,12.19
2022-10-04T06:23:45.944Z,11.69
2022-10-04T06:24:46.062Z,12.60
2022-10-04T06:25:46.180Z,11.30
2022-10-04T06:26:46.311Z,11.50
2022-10-04T06:27:46.402Z,11.10
2022-10-04T06:28:46.510Z,11.39
2022-10-04T06:29:46.621Z,10.69
2022-10-04T06:30:46.801Z,10.60
2022-10-04T06:31:47.143Z,10.50
2022-10-04T06:32:46.956Z,10.69
2022-10-04T06:33:47.067Z,10.50
2022-10-04T06:34:47.178Z,10.10
2022-10-04T06:35:47.285Z,10.30
2022-10-04T06:36:47.396Z,9.69
2022-10-04T06:37:47.500Z,9.80
2022-10-04T06:38:47.606Z,9.19
2022-10-04T06:39:47.721Z,9.80
2022-10-04T06:40:47.826Z,8.80
2022-10-04T06:41:47.972Z,8.69
2022-10-04T06:42:48.045Z,9.10
2022-10-04T06:43:48.146Z,9.00
2022-10-04T06:44:48.251Z,9.10
2022-10-04T06:45:48.417Z,8.30
2022-10-04T06:46:48.458Z,8.80
2022-10-04T06:47:48.569Z,8.39
2022-10-04T06:48:48.676Z,8.10
2022-10-04T06:49:48.776Z,7.90
2022-10-04T06:50:48.887Z,8.10
2022-10-04T06:51:48.991Z,7.19
2022-10-04T06:52:49.095Z,7.59
2022-10-04T06:53:49.195Z,8.00
2022-10-04T06:54:49.294Z,7.90
2022-10-04T06:55:49.386Z,7.09
2022-10-04T06:56:49.481Z,6.69
2022-10-04T06:57:49.599Z,7.30
2022-10-04T06:58:49.670Z,6.40
2022-10-04T06:59:49.763Z,6.19
2022-10-04T07:00:49.919Z,6.19
2022-10-04T07:01:50.059Z,6.80
2022-10-04T07:02:50.128Z,6.09
2022-10-04T07:03:51.726Z,6.40
2022-10-04T07:05:07.476Z,6.09
2022-10-04T07:05:51.311Z,5.59
2022-10-04T07:06:50.381Z,5.80
2022-10-04T07:07:50.461Z,6.40
2022-10-04T07:08:50.547Z,5.40
2022-10-04T07:09:50.628Z,6.00
2022-10-04T07:10:50.705Z,5.90
2022-10-04T07:11:50.789Z,6.19
2022-10-04T07:12:50.858Z,5.90
2022-10-04T07:13:50.973Z,6.69
2022-10-04T07:14:51.024Z,6.40
2022-10-04T07:15:51.166Z,6.09
2022-10-04T07:16:51.184Z,6.30
2022-10-04T07:17:51.259Z,5.50
2022-10-04T07:18:51.335Z,6.30
2022-10-04T07:19:51.411Z,5.59
2022-10-04T07:20:51.484Z,5.90
2022-10-04T07:21:51.558Z,5.69
2022-10-04T07:22:51.631Z,6.40
2022-10-04T07:23:51.706Z,5.80
2022-10-04T07:24:51.779Z,5.40
2022-10-04T07:25:51.848Z,5.40
2022-10-04T07:26:51.921Z,5.69
2022-10-04T07:27:52.029Z,5.69
2022-10-04T07:28:52.065Z,5.50
2022-10-04T07:29:52.216Z,5.69
2022-10-04T07:30:52.280Z,5.69
2022-10-04T07:31:52.272Z,5.30
2022-10-04T07:32:52.343Z,5.50
2022-10-04T07:33:52.412Z,5.40
2022-10-04T07:34:52.475Z,5.40
2022-10-04T07:35:52.539Z,5.09
2022-10-04T07:36:52.596Z,4.69
2022-10-04T07:37:52.657Z,4.69
2022-10-04T07:38:52.713Z,5.19
2022-10-04T07:39:52.773Z,4.50
2022-10-04T07:40:52.832Z,4.69
2022-10-04T07:41:52.889Z,5.00
2022-10-04T07:42:52.947Z,5.19
2022-10-04T07:43:53.009Z,4.90
2022-10-04T07:44:53.061Z,4.80
2022-10-04T07:45:53.162Z,4.90
2022-10-04T07:46:53.174Z,4.69
2022-10-04T07:47:53.234Z,5.09
2022-10-04T07:48:53.282Z,4.40
2022-10-04T07:49:53.333Z,4.30
2022-10-04T07:50:53.387Z,4.50
2022-10-04T07:51:53.433Z,4.69
2022-10-04T07:52:53.483Z,4.90
2022-10-04T07:53:53.532Z,4.90
2022-10-04T07:54:53.578Z,4.90
2022-10-04T07:55:53.630Z,4.59
2022-10-04T07:56:53.679Z,5.00
2022-10-04T07:57:53.729Z,4.59
2022-10-04T07:58:53.780Z,4.69
2022-10-04T07:59:53.831Z,4.80
2022-10-04T08:00:53.875Z,4.30
2022-10-04T08:01:53.983Z,4.19
2022-10-04T08:02:54.189Z,4.69
2022-10-04T08:03:54.016Z,4.59
2022-10-04T08:04:54.062Z,4.50
2022-10-04T08:05:54.114Z,4.50
2022-10-04T08:06:54.155Z,4.50
2022-10-04T08:07:54.206Z,4.59
2022-10-04T08:08:54.245Z,4.59
2022-10-04T08:09:54.294Z,4.59
2022-10-04T08:10:57.276Z,4.90
2022-10-04T08:11:54.386Z,4.40
2022-10-04T08:12:54.435Z,4.30
2022-10-04T08:13:54.482Z,5.09
2022-10-04T08:14:54.553Z,4.30
2022-10-04T08:15:54.661Z,4.40
2022-10-04T08:16:54.629Z,4.50
2022-10-04T08:17:54.706Z,4.90
2022-10-04T08:18:54.720Z,4.59
2022-10-04T08:19:54.775Z,4.80
2022-10-04T08:20:54.828Z,5.19
2022-10-04T08:21:54.870Z,5.09
2022-10-04T08:22:54.910Z,4.69
2022-10-04T08:23:54.953Z,4.90
2022-10-04T08:24:54.994Z,4.59
2022-10-04T08:25:55.029Z,4.50
2022-10-04T08:26:55.065Z,4.80
2022-10-04T08:27:55.179Z,4.80
2022-10-04T08:28:55.132Z,4.40
2022-10-04T08:29:55.171Z,4.59
2022-10-04T08:30:55.246Z,3.90
2022-10-04T08:31:55.227Z,4.30
2022-10-04T08:32:55.253Z,4.30
2022-10-04T08:33:55.287Z,3.70
2022-10-04T08:34:55.297Z,3.59
2022-10-04T08:35:55.296Z,4.00
2022-10-04T08:36:55.310Z,4.19
2022-10-04T08:37:55.318Z,3.90
2022-10-04T08:38:55.327Z,4.30
2022-10-04T08:39:55.330Z,4.09
2022-10-04T08:40:55.326Z,4.19
2022-10-04T08:41:55.342Z,4.40
2022-10-04T08:42:55.321Z,4.50
2022-10-04T08:43:55.317Z,4.30
2022-10-04T08:44:55.310Z,3.90
2022-10-04T08:45:55.343Z,3.90
2022-10-04T08:46:55.313Z,4.00
2022-10-04T08:47:55.276Z,3.90
2022-10-04T08:48:55.263Z,4.00
2022-10-04T08:49:55.269Z,4.09
2022-10-04T08:50:55.229Z,3.90
2022-10-04T08:51:55.208Z,4.09
2022-10-04T08:52:55.191Z,3.79
2022-10-04T08:53:55.172Z,4.09
2022-10-04T08:54:55.152Z,4.09
2022-10-04T08:55:55.126Z,3.79
2022-10-04T08:56:55.102Z,4.30
2022-10-04T08:57:55.079Z,3.79
2022-10-04T08:58:55.057Z,4.19
2022-10-04T08:59:55.025Z,4.09
2022-10-04T09:00:54.997Z,4.19
2022-10-04T09:01:55.004Z,3.59
2022-10-04T09:02:55.014Z,3.90
2022-10-04T09:03:54.892Z,4.00
2022-10-04T09:04:54.854Z,4.19
2022-10-04T09:05:54.883Z,3.50
2022-10-04T09:06:54.778Z,3.70
2022-10-04T09:07:54.740Z,3.79
2022-10-04T09:08:54.706Z,3.29
2022-10-04T09:09:54.666Z,3.50
2022-10-04T09:10:54.624Z,3.29
2022-10-04T09:11:54.583Z,3.59
2022-10-04T09:12:54.543Z,3.79
2022-10-04T09:13:54.501Z,3.40
2022-10-04T09:14:54.455Z,3.50
2022-10-04T09:15:54.494Z,3.70
2022-10-04T09:16:54.365Z,4.00
2022-10-04T09:17:54.318Z,3.59
2022-10-04T09:18:54.276Z,3.79
2022-10-04T09:19:54.214Z,3.90
2022-10-04T09:20:54.169Z,3.59
2022-10-04T09:21:54.140Z,3.79
2022-10-04T09:22:54.067Z,3.70
2022-10-04T09:23:54.014Z,3.50
2022-10-04T09:24:53.964Z,3.59
2022-10-04T09:25:53.911Z,3.20
2022-10-04T09:26:53.869Z,3.40
2022-10-04T09:27:55.283Z,3.59
2022-10-04T09:28:53.745Z,3.59
2022-10-04T09:29:53.686Z,3.40
2022-10-04T09:30:53.667Z,3.20
2022-10-04T09:31:53.569Z,3.90
2022-10-04T09:32:53.511Z,3.29
2022-10-04T09:33:53.456Z,3.50
2022-10-04T09:34:53.395Z,3.00
2022-10-04T09:35:53.330Z,3.29
2022-10-04T09:36:53.261Z,3.40
2022-10-04T09:37:53.214Z,3.00
2022-10-04T09:39:11.451Z,3.09
2022-10-04T09:39:53.044Z,3.29
2022-10-04T09:40:52.977Z,3.40
2022-10-04T09:41:52.903Z,3.09
2022-10-04T09:42:52.822Z,3.50
2022-10-04T09:43:52.748Z,3.29
2022-10-04T09:44:52.670Z,3.40
2022-10-04T09:45:52.598Z,3.20
2022-10-04T09:46:56.299Z,3.29
2022-10-04T09:47:52.447Z,3.20
2022-10-04T09:48:52.372Z,3.40
2022-10-04T09:49:52.298Z,3.50
2022-10-04T09:50:52.225Z,3.40
2022-10-04T09:51:52.160Z,3.70
2022-10-04T09:52:52.086Z,3.20
2022-10-04T09:53:52.019Z,3.70
2022-10-04T09:54:51.919Z,3.70
2022-10-04T09:55:51.855Z,3.90
2022-10-04T09:56:51.760Z,3.29
2022-10-04T09:57:51.674Z,3.20
2022-10-04T09:58:51.595Z,3.50
2022-10-04T09:59:51.504Z,3.09
2022-10-04T10:00:51.422Z,3.20
2022-10-04T10:01:51.373Z,2.90
2022-10-04T10:02:51.289Z,2.70
2022-10-04T10:03:51.147Z,3.00
2022-10-04T10:04:51.055Z,2.59
2022-10-04T10:05:50.973Z,2.50
2022-10-04T10:06:50.870Z,2.59
2022-10-04T10:07:50.775Z,2.70
2022-10-04T10:08:50.683Z,2.40
2022-10-04T10:09:50.616Z,2.59
2022-10-04T10:10:50.495Z,2.79
2022-10-04T10:11:50.397Z,2.59
2022-10-04T10:12:50.300Z,3.00
2022-10-04T10:13:50.212Z,2.50
2022-10-04T10:14:50.115Z,2.79
2022-10-04T10:15:50.201Z,3.09
2022-10-04T10:16:49.935Z,2.70
2022-10-04T10:17:49.840Z,2.70
2022-10-04T10:18:49.753Z,3.20
2022-10-04T10:19:49.649Z,2.70
2022-10-04T10:20:49.552Z,3.09
2022-10-04T10:21:49.459Z,2.40
2022-10-04T10:22:49.360Z,2.20
2022-10-04T10:23:49.266Z,2.79
2022-10-04T10:24:49.166Z,3.00
2022-10-04T10:25:49.092Z,2.79
2022-10-04T10:26:48.970Z,3.90
2022-10-04T10:27:48.871Z,3.00
2022-10-04T10:28:48.776Z,3.00
2022-10-04T10:29:48.678Z,2.90
2022-10-04T10:30:48.647Z,3.00
2022-10-04T10:31:48.521Z,3.29
2022-10-04T10:32:48.366Z,2.90
2022-10-04T10:33:48.262Z,3.00
2022-10-04T10:34:48.160Z,3.20
2022-10-04T10:35:48.049Z,3.20
2022-10-04T10:36:48.232Z,3.09
2022-10-04T10:37:47.830Z,2.90
2022-10-04T10:38:47.714Z,3.00
2022-10-04T10:39:47.604Z,3.09
2022-10-04T10:40:47.490Z,2.40
2022-10-04T10:41:47.398Z,2.40
2022-10-04T10:42:47.263Z,2.09
2022-10-04T10:43:47.146Z,2.09
2022-10-04T10:44:47.035Z,2.50
2022-10-04T10:45:46.918Z,2.40
2022-10-04T10:46:47.319Z,2.59
2022-10-04T10:47:46.680Z,2.20
2022-10-04T10:48:46.561Z,2.59
2022-10-04T10:49:46.445Z,2.50
2022-10-04T10:50:46.324Z,2.09
2022-10-04T10:51:46.203Z,2.79
2022-10-04T10:52:46.083Z,2.20
2022-10-04T10:53:45.964Z,2.40
2022-10-04T10:54:45.846Z,2.09
2022-10-04T10:55:45.724Z,2.29
2022-10-04T10:56:45.871Z,2.00
2022-10-04T10:57:45.507Z,2.20
2022-10-04T10:58:45.354Z,2.20
2022-10-04T10:59:45.229Z,2.79
2022-10-04T11:00:45.103Z,2.00
2022-10-04T11:01:45.071Z,2.00
2022-10-04T11:02:51.767Z,2.20
2022-10-04T11:03:45.862Z,2.90
2022-10-04T11:04:44.609Z,2.09
2022-10-04T11:05:44.485Z,2.29
2022-10-04T11:06:44.669Z,2.40
2022-10-04T11:07:44.239Z,2.09
2022-10-04T11:08:44.116Z,2.29
2022-10-04T11:09:43.989Z,2.50
2022-10-04T11:10:43.860Z,2.70
2022-10-04T11:11:43.732Z,2.29
2022-10-04T11:12:43.603Z,2.59
2022-10-04T11:13:43.502Z,2.70
2022-10-04T11:14:43.351Z,2.59
2022-10-04T11:15:43.248Z,2.70
2022-10-04T11:16:43.544Z,2.90
2022-10-04T11:17:42.968Z,2.59
2022-10-04T11:18:42.839Z,2.79
2022-10-04T11:19:42.709Z,2.50
2022-10-04T11:20:42.578Z,2.50
2022-10-04T11:21:42.440Z,3.09
2022-10-04T11:22:42.301Z,2.40
2022-10-04T11:23:42.164Z,2.70
2022-10-04T11:24:42.021Z,3.00
2022-10-04T11:25:41.882Z,2.40
2022-10-04T11:26:41.988Z,3.20
2022-10-04T11:27:41.735Z,3.00
2022-10-04T11:28:41.482Z,3.90
2022-10-04T11:29:41.332Z,4.00
2022-10-04T11:30:41.159Z,5.59
2022-10-04T11:31:41.180Z,6.00
2022-10-04T11:32:40.870Z,3.90
2022-10-04T11:33:40.723Z,4.50
2022-10-04T11:34:40.577Z,3.20
2022-10-04T11:35:40.430Z,3.70
2022-10-04T11:36:40.287Z,4.90
2022-10-04T11:37:40.140Z,3.70
2022-10-04T11:38:39.998Z,3.79
2022-10-04T11:39:43.738Z,4.30
2022-10-04T11:40:39.704Z,2.90
2022-10-04T11:41:39.558Z,2.59
2022-10-04T11:42:39.415Z,3.40
2022-10-04T11:43:39.274Z,4.30
2022-10-04T11:44:39.129Z,6.00
2022-10-04T11:45:39.006Z,3.40
2022-10-04T11:46:38.902Z,4.19
2022-10-04T11:47:38.691Z,3.00
2022-10-04T11:48:38.549Z,3.29
2022-10-04T11:49:38.406Z,3.79
2022-10-04T11:50:38.263Z,3.70
2022-10-04T11:51:38.121Z,3.40
2022-10-04T11:52:37.981Z,2.90
2022-10-04T11:53:37.842Z,3.09
2022-10-04T11:54:37.693Z,2.90
2022-10-04T11:55:37.551Z,3.29
2022-10-04T11:56:37.407Z,2.90
2022-10-04T11:57:37.269Z,5.59
2022-10-04T11:58:37.125Z,5.59
2022-10-04T11:59:36.982Z,3.20
2022-10-04T12:00:36.850Z,2.79
2022-10-04T12:01:36.710Z,2.59
2022-10-04T12:02:36.536Z,2.70
2022-10-04T12:03:36.463Z,2.59
2022-10-04T12:04:36.322Z,2.50
2022-10-04T12:05:36.102Z,2.40
2022-10-04T12:06:35.954Z,2.59
2022-10-04T12:07:35.804Z,2.70
2022-10-04T12:08:35.662Z,2.29
2022-10-04T12:09:35.517Z,2.40
2022-10-04T12:10:35.370Z,2.20
2022-10-04T12:11:35.222Z,2.29
2022-10-04T12:12:35.079Z,2.50
2022-10-04T12:13:34.932Z,2.29
2022-10-04T12:14:34.785Z,3.00
2022-10-04T12:15:34.635Z,2.40
2022-10-04T12:16:34.516Z,2.20
2022-10-04T12:17:34.405Z,2.59
2022-10-04T12:18:34.189Z,2.29
2022-10-04T12:19:34.039Z,2.09
2022-10-04T12:20:33.888Z,2.29
2022-10-04T12:21:33.734Z,2.20
2022-10-04T12:22:33.597Z,2.59
2022-10-04T12:23:33.434Z,2.20
2022-10-04T12:24:33.293Z,2.50
2022-10-04T12:25:33.132Z,2.50
2022-10-04T12:26:33.032Z,2.09
2022-10-04T12:27:32.831Z,2.09
2022-10-04T12:28:32.791Z,2.29
2022-10-04T12:29:32.541Z,2.40
2022-10-04T12:30:32.389Z,2.29
2022-10-04T12:31:32.346Z,2.09
2022-10-04T12:32:32.098Z,2.29
2022-10-04T12:33:32.023Z,2.29
2022-10-04T12:34:31.806Z,2.59
2022-10-04T12:35:31.664Z,2.29
2022-10-04T12:36:31.524Z,2.20
2022-10-04T12:37:31.376Z,2.20
2022-10-04T12:38:31.235Z,2.20
2022-10-04T12:39:31.082Z,2.40
2022-10-04T12:40:30.933Z,2.40
2022-10-04T12:41:30.790Z,2.50
2022-10-04T12:42:32.679Z,2.79
2022-10-04T12:43:30.497Z,2.29
2022-10-04T12:44:30.353Z,2.50
2022-10-04T12:45:30.294Z,2.40
2022-10-04T12:46:30.059Z,2.40
2022-10-04T12:47:29.913Z,2.59
2022-10-04T12:48:29.763Z,2.40
2022-10-04T12:49:29.636Z,2.40
2022-10-04T12:50:29.467Z,2.29
2022-10-04T12:51:29.320Z,2.59
2022-10-04T12:52:29.174Z,2.50
2022-10-04T12:53:29.032Z,2.00
2022-10-04T12:54:28.889Z,2.20
2022-10-04T12:55:28.743Z,2.09
2022-10-04T12:56:28.601Z,2.20
2022-10-04T12:57:28.455Z,2.50
2022-10-04T12:58:28.306Z,2.00
2022-10-04T12:59:28.158Z,2.20
2022-10-04T13:00:28.010Z,2.09
2022-10-04T13:01:27.962Z,2.20
2022-10-04T13:02:27.787Z,2.00
2022-10-04T13:03:27.566Z,2.20
2022-10-04T13:04:27.423Z,2.40
2022-10-04T13:05:27.305Z,2.29
2022-10-04T13:06:27.133Z,2.40
2022-10-04T13:07:26.991Z,2.09
2022-10-04T13:08:26.848Z,2.40
2022-10-04T13:09:26.707Z,2.09